createdAt,value
2022-10-19T00:01:37.103Z,99114.41
2022-10-19T00:06:43.743Z,99100.71
2022-10-19T00:11:50.756Z,99102.27
2022-10-19T00:16:58.569Z,99100.80
2022-10-19T00:22:06.336Z,99102.27
2022-10-19T00:27:14.865Z,99098.04
2022-10-19T00:32:21.762Z,99100.63
2022-10-19T00:37:28.682Z,99103.15
2022-10-19T00:42:35.698Z,99100.95
2022-10-19T00:47:43.232Z,99102.20
2022-10-19T00:52:49.883Z,99094.02
2022-10-19T00:57:56.604Z,99078.02
2022-10-19T01:03:03.272Z,99073.71
2022-10-19T01:08:10.645Z,99068.35
2022-10-19T01:13:26.523Z,99064.64
2022-10-19T01:18:39.673Z,99070.55
2022-10-19T01:24:08.688Z,99060.40
2022-10-19T01:29:19.382Z,99054.48
2022-10-19T01:34:28.286Z,99062.98
2022-10-19T01:39:50.453Z,99056.77
2022-10-19T01:45:00.836Z,99056.06
2022-10-19T01:50:10.186Z,99054.16
2022-10-19T01:55:17.906Z,99065.35
2022-10-19T02:00:25.748Z,99065.97
2022-10-19T02:05:34.006Z,99061.64
2022-10-19T02:10:41.660Z,99056.85
2022-10-19T02:15:50.496Z,99054.09
2022-10-19T02:20:57.575Z,99040.93
2022-10-19T02:26:04.480Z,99036.52
2022-10-19T02:31:11.296Z,99039.60
2022-10-19T02:36:17.717Z,99033.14
2022-10-19T02:41:26.124Z,99023.93
2022-10-19T02:46:36.524Z,99025.73
2022-10-19T02:51:57.190Z,99031.88
2022-10-19T02:57:05.084Z,99035.73
2022-10-19T03:02:12.094Z,99036.92
2022-10-19T03:07:20.219Z,99042.66
2022-10-19T03:12:27.438Z,99045.50
2022-10-19T03:17:34.412Z,99041.34
2022-10-19T03:22:41.455Z,99041.25
2022-10-19T03:27:48.174Z,99037.55
2022-10-19T03:32:54.867Z,99038.27
2022-10-19T03:38:01.286Z,99037.16
2022-10-19T03:43:07.867Z,99039.92
2022-10-19T03:48:14.576Z,99031.80
2022-10-19T03:53:21.254Z,99028.80
2022-10-19T03:58:27.924Z,99028.27
2022-10-19T04:08:42.348Z,99033.31
2022-10-19T04:13:49.801Z,99034.73
2022-10-19T04:18:56.301Z,99032.20
2022-10-19T04:24:03.847Z,99037.33
2022-10-19T04:29:10.881Z,99036.69
2022-10-19T04:34:17.697Z,99034.73
2022-10-19T04:39:24.386Z,99037.71
2022-10-19T04:44:30.919Z,99039.60
2022-10-19T04:49:37.661Z,99037.80
2022-10-19T04:54:44.617Z,99036.30
2022-10-19T04:59:51.154Z,99026.61
2022-10-19T05:04:58.188Z,99016.38
2022-10-19T05:10:05.446Z,99007.00
2022-10-19T05:15:13.083Z,99001.27
2022-10-19T05:20:19.707Z,99002.98
2022-10-19T05:25:26.537Z,99001.34
2022-10-19T05:30:33.237Z,99002.43
2022-10-19T05:35:39.731Z,99006.99
2022-10-19T05:40:52.874Z,99012.20
2022-10-19T05:46:04.209Z,99015.50
2022-10-19T05:51:12.442Z,99016.61
2022-10-19T05:56:19.903Z,99021.02
2022-10-19T06:01:27.225Z,99024.23
2022-10-19T06:06:34.188Z,99017.79
2022-10-19T06:11:41.770Z,99027.70
2022-10-19T06:16:48.547Z,99034.48
2022-10-19T06:21:55.417Z,99034.71
2022-10-19T06:27:02.125Z,99042.36
2022-10-19T06:32:08.987Z,99044.96
2022-10-19T06:37:15.675Z,99048.11
2022-10-19T06:42:22.458Z,99046.85
2022-10-19T06:47:33.833Z,99053.14
2022-10-19T06:52:41.183Z,99056.69
2022-10-19T06:57:48.078Z,99058.34
2022-10-19T07:02:54.738Z,99065.04
2022-10-19T07:08:01.501Z,99064.96
2022-10-19T07:18:15.457Z,99071.17
2022-10-19T07:23:22.083Z,99071.34
2022-10-19T07:28:29.305Z,99070.77
2022-10-19T07:33:36.114Z,99076.77
2022-10-19T07:38:42.798Z,99076.45
2022-10-19T07:43:50.053Z,99076.92
2022-10-19T07:48:56.987Z,99079.98
2022-10-19T07:54:04.487Z,99082.83
2022-10-19T07:59:12.097Z,99082.13
2022-10-19T08:09:53.379Z,99081.40
2022-10-19T08:15:00.901Z,99079.20
2022-10-19T08:20:08.937Z,99085.27
2022-10-19T08:25:15.661Z,99084.95
2022-10-19T08:30:22.517Z,99083.47
2022-10-19T08:35:29.177Z,99084.87
2022-10-19T08:40:35.840Z,99084.56
2022-10-19T08:45:43.443Z,99084.73
2022-10-19T08:50:50.536Z,99087.48
2022-10-19T08:56:05.285Z,99085.35
2022-10-19T09:01:15.551Z,99091.48
2022-10-19T09:06:25.348Z,99095.04
2022-10-19T09:11:34.398Z,99094.02
2022-10-19T09:16:41.556Z,99100.94
2022-10-19T09:21:50.349Z,99094.41
2022-10-19T09:26:58.216Z,99102.83
2022-10-19T09:32:06.836Z,99105.98
2022-10-19T09:37:21.768Z,99106.06
2022-10-19T09:42:34.132Z,99101.88
2022-10-19T09:47:41.974Z,99110.23
2022-10-19T09:52:49.370Z,99109.77
2022-10-19T09:58:03.081Z,99115.12
2022-10-19T10:03:10.307Z,99116.38
2022-10-19T10:08:17.567Z,99112.45
2022-10-19T10:13:26.519Z,99113.86
2022-10-19T10:18:33.327Z,99107.56
2022-10-19T10:23:39.958Z,99106.85
2022-10-19T10:28:50.487Z,99102.20
2022-10-19T10:34:12.156Z,99104.41
2022-10-19T10:39:29.546Z,99106.14
2022-10-19T10:44:37.317Z,99109.13
2022-10-19T10:49:44.907Z,99107.09
2022-10-19T10:55:01.226Z,99106.30
2022-10-19T11:00:11.981Z,99107.40
2022-10-19T11:05:20.358Z,99103.22
2022-10-19T11:10:30.286Z,99101.34
2022-10-19T11:15:39.587Z,99102.84
2022-10-19T11:20:51.161Z,99088.27
2022-10-19T11:26:06.132Z,99076.77
2022-10-19T11:31:16.370Z,99084.40
2022-10-19T11:36:31.091Z,99088.42
2022-10-19T11:41:40.287Z,99085.03
2022-10-19T11:46:51.548Z,99080.70
2022-10-19T11:57:39.101Z,99074.78
2022-10-19T12:03:01.474Z,99063.84
2022-10-19T12:13:30.385Z,99068.41
2022-10-19T12:18:39.918Z,99063.62
2022-10-19T12:23:48.502Z,99062.75
2022-10-19T12:28:57.617Z,99058.96
2022-10-19T12:34:08.972Z,99063.06
2022-10-19T12:39:19.766Z,99061.96
2022-10-19T12:44:45.726Z,99059.06
2022-10-19T12:49:53.169Z,99059.77
2022-10-19T12:55:12.382Z,99062.44
2022-10-19T13:00:23.242Z,99051.65
2022-10-19T13:05:30.908Z,99055.19
2022-10-19T13:10:37.767Z,99059.05
2022-10-19T13:15:53.610Z,99061.89
2022-10-19T13:21:02.559Z,99064.80
2022-10-19T13:26:33.100Z,99063.06
2022-10-19T13:31:40.115Z,99067.95
2022-10-19T13:37:00.857Z,99070.23
2022-10-19T13:42:07.396Z,99075.66
2022-10-19T13:47:32.190Z,99072.77
2022-10-19T13:52:45.187Z,99073.86
2022-10-19T13:58:02.879Z,99072.20
2022-10-19T14:03:27.077Z,99075.98
2022-10-19T14:08:58.605Z,99071.34
2022-10-19T14:14:18.018Z,99075.83
2022-10-19T14:19:31.669Z,99081.90
2022-10-19T14:24:38.675Z,99086.39
2022-10-19T14:29:47.647Z,99086.77
2022-10-19T14:34:55.125Z,99083.94
2022-10-19T14:40:03.574Z,99076.92
2022-10-19T14:45:14.930Z,99074.41
2022-10-19T14:50:23.371Z,99070.95
2022-10-19T14:55:34.261Z,99073.46
2022-10-19T15:00:41.165Z,99077.25
2022-10-19T15:05:50.918Z,99075.27
2022-10-19T15:10:57.938Z,99081.34
2022-10-19T15:16:04.706Z,99083.95
2022-10-19T15:21:17.590Z,99090.89
2022-10-19T15:26:29.396Z,99087.41
2022-10-19T15:31:35.977Z,99091.98
2022-10-19T15:36:55.773Z,99089.77
2022-10-19T15:42:15.837Z,99097.41
2022-10-19T15:47:24.140Z,99101.58
2022-10-19T15:52:31.657Z,99111.98
2022-10-19T15:57:39.607Z,99111.98
2022-10-19T16:02:46.467Z,99121.90
2022-10-19T16:07:53.417Z,99117.41
2022-10-19T16:12:59.925Z,99126.55
2022-10-19T16:18:06.557Z,99135.77
2022-10-19T16:23:14.848Z,99144.41
2022-10-19T16:28:21.928Z,99139.46
2022-10-19T16:33:28.436Z,99139.54
2022-10-19T16:38:36.256Z,99148.13
2022-10-19T16:43:42.866Z,99154.97
2022-10-19T16:48:49.574Z,99154.59
2022-10-19T16:53:57.591Z,99155.77
2022-10-19T16:59:04.869Z,99155.68
2022-10-19T17:04:11.776Z,99163.01
2022-10-19T17:14:47.995Z,99179.39
2022-10-19T17:19:54.781Z,99191.28
2022-10-19T17:25:01.375Z,99193.01
2022-10-19T17:30:08.917Z,99198.45
2022-10-19T17:35:15.948Z,99203.48
2022-10-19T17:40:22.546Z,99208.45
2022-10-19T17:45:29.269Z,99213.96
2022-10-19T17:50:35.960Z,99215.14
2022-10-19T17:55:42.827Z,99222.69
2022-10-19T18:00:49.555Z,99225.61
2022-10-19T18:06:00.138Z,99227.27
2022-10-19T18:11:07.978Z,99226.15
2022-10-19T18:16:15.144Z,99222.52
2022-10-19T18:21:23.098Z,99220.88
2022-10-19T18:26:30.846Z,99226.55
2022-10-19T18:31:39.268Z,99234.27
2022-10-19T18:36:46.067Z,99241.67
2022-10-19T18:41:55.053Z,99241.44
2022-10-19T18:47:01.983Z,99245.05
2022-10-19T18:52:09.007Z,99246.73
2022-10-19T18:57:15.607Z,99241.90
2022-10-19T19:02:35.270Z,99249.46
2022-10-19T19:07:42.359Z,99255.14
2022-10-19T19:12:50.911Z,99256.85
2022-10-19T19:17:57.448Z,99264.42
2022-10-19T19:23:04.386Z,99267.65
2022-10-19T19:28:11.185Z,99267.27
2022-10-19T19:33:17.888Z,99277.09
2022-10-19T19:38:24.547Z,99284.66
2022-10-19T19:43:33.149Z,99287.41
2022-10-19T19:48:40.095Z,99290.88
2022-10-19T19:53:47.728Z,99294.48
2022-10-19T19:58:57.521Z,99296.23
2022-10-19T20:04:04.478Z,99309.36
2022-10-19T20:09:12.143Z,99315.11
2022-10-19T20:14:19.208Z,99321.80
2022-10-19T20:19:25.857Z,99323.09
2022-10-19T20:24:35.462Z,99326.68
2022-10-19T20:29:43.625Z,99330.47
2022-10-19T20:34:50.440Z,99330.94
2022-10-19T20:39:56.904Z,99331.56
2022-10-19T20:45:03.526Z,99336.23
2022-10-19T20:50:10.936Z,99335.51
2022-10-19T20:55:18.017Z,99334.33
2022-10-19T21:00:24.752Z,99331.64
2022-10-19T21:05:31.356Z,99334.73
2022-10-19T21:10:38.094Z,99333.84
2022-10-19T21:15:44.875Z,99331.56
2022-10-19T21:20:51.620Z,99334.86
2022-10-19T21:25:58.770Z,99332.80
2022-10-19T21:31:09.036Z,99332.98
2022-10-19T21:36:16.597Z,99325.80
2022-10-19T21:41:26.220Z,99323.52
2022-10-19T21:46:33.397Z,99320.61
2022-10-19T21:51:41.225Z,99325.02
2022-10-19T21:56:48.596Z,99322.58
2022-10-19T22:01:56.681Z,99326.91
2022-10-19T22:07:03.354Z,99326.83
2022-10-19T22:12:10.367Z,99335.09
2022-10-19T22:17:16.767Z,99329.33
2022-10-19T22:22:23.422Z,99328.46
2022-10-19T22:27:30.042Z,99329.33
2022-10-19T22:32:37.142Z,99329.41
2022-10-19T22:37:44.191Z,99329.71
2022-10-19T22:42:50.617Z,99333.96
2022-10-19T22:47:57.181Z,99332.53
2022-10-19T22:53:03.591Z,99334.17
2022-10-19T23:03:18.107Z,99350.31
2022-10-19T23:08:24.942Z,99348.19
2022-10-19T23:13:31.775Z,99356.84
2022-10-19T23:18:39.510Z,99356.91
2022-10-19T23:23:46.125Z,99362.02
2022-10-19T23:28:52.927Z,99366.98
2022-10-19T23:33:59.896Z,99369.43
2022-10-19T23:39:06.770Z,99369.59
2022-10-19T23:44:13.422Z,99371.08
2022-10-19T23:49:20.290Z,99372.11
2022-10-19T23:54:27.055Z,99371.86
2022-10-19T23:59:33.677Z,99374.55
